sensor_id;sensor_type;location;lat;lon;timestamp;P1;durP1;ratioP1;P2;durP2;ratioP2
5199;SDS011;2619;47.868;11.892;2023-08-08T00:01:18;3.03;;;1.70;;
5199;SDS011;2619;47.868;11.892;2023-08-08T00:03:45;4.10;;;1.97;;
5199;SDS011;2619;47.868;11.892;2023-08-08T00:06:11;3.70;;;1.83;;
5199;SDS011;2619;47.868;11.892;2023-08-08T00:08:37;2.77;;;1.50;;
5199;SDS011;2619;47.868;11.892;2023-08-08T00:11:02;3.83;;;1.80;;
5199;SDS011;2619;47.868;11.892;2023-08-08T00:13:28;3.73;;;1.63;;
5199;SDS011;2619;47.868;11.892;2023-08-08T00:15:53;3.10;;;1.77;;
5199;SDS011;2619;47.868;11.892;2023-08-08T00:18:19;3.83;;;2.17;;
5199;SDS011;2619;47.868;11.892;2023-08-08T00:20:45;3.07;;;1.50;;
5199;SDS011;2619;47.868;11.892;2023-08-08T00:23:10;2.20;;;1.27;;
5199;SDS011;2619;47.868;11.892;2023-08-08T00:25:36;2.83;;;1.40;;
5199;SDS011;2619;47.868;11.892;2023-08-08T00:28:02;2.57;;;1.43;;
5199;SDS011;2619;47.868;11.892;2023-08-08T00:30:28;3.77;;;1.63;;
5199;SDS011;2619;47.868;11.892;2023-08-08T00:32:53;3.17;;;1.80;;
5199;SDS011;2619;47.868;11.892;2023-08-08T00:35:19;3.93;;;1.37;;
5199;SDS011;2619;47.868;11.892;2023-08-08T00:37:44;3.17;;;1.50;;
5199;SDS011;2619;47.868;11.892;2023-08-08T00:40:10;2.70;;;1.67;;
5199;SDS011;2619;47.868;11.892;2023-08-08T00:42:36;5.20;;;1.80;;
5199;SDS011;2619;47.868;11.892;2023-08-08T00:45:01;2.57;;;1.57;;
5199;SDS011;2619;47.868;11.892;2023-08-08T00:47:29;2.80;;;1.40;;
5199;SDS011;2619;47.868;11.892;2023-08-08T00:49:56;2.83;;;1.50;;
5199;SDS011;2619;47.868;11.892;2023-08-08T00:52:22;6.60;;;1.70;;
5199;SDS011;2619;47.868;11.892;2023-08-08T00:54:48;4.13;;;2.00;;
5199;SDS011;2619;47.868;11.892;2023-08-08T00:57:13;2.73;;;1.60;;
5199;SDS011;2619;47.868;11.892;2023-08-08T00:59:39;2.93;;;1.80;;
5199;SDS011;2619;47.868;11.892;2023-08-08T01:02:05;3.20;;;1.57;;
5199;SDS011;2619;47.868;11.892;2023-08-08T01:04:30;4.03;;;1.53;;
5199;SDS011;2619;47.868;11.892;2023-08-08T01:09:54;3.80;;;1.77;;
5199;SDS011;2619;47.868;11.892;2023-08-08T01:12:29;3.17;;;1.70;;
5199;SDS011;2619;47.868;11.892;2023-08-08T01:14:55;4.07;;;1.80;;
5199;SDS011;2619;47.868;11.892;2023-08-08T01:17:21;3.93;;;1.70;;
5199;SDS011;2619;47.868;11.892;2023-08-08T01:19:49;2.77;;;1.93;;
5199;SDS011;2619;47.868;11.892;2023-08-08T01:22:18;3.00;;;1.67;;
5199;SDS011;2619;47.868;11.892;2023-08-08T01:24:49;2.40;;;1.50;;
5199;SDS011;2619;47.868;11.892;2023-08-08T01:27:15;2.70;;;1.47;;
5199;SDS011;2619;47.868;11.892;2023-08-08T01:29:41;2.67;;;1.60;;
5199;SDS011;2619;47.868;11.892;2023-08-08T01:32:07;3.00;;;1.80;;
5199;SDS011;2619;47.868;11.892;2023-08-08T01:34:34;2.83;;;1.80;;
5199;SDS011;2619;47.868;11.892;2023-08-08T01:37:12;3.30;;;1.93;;
5199;SDS011;2619;47.868;11.892;2023-08-08T01:39:42;2.50;;;1.50;;
5199;SDS011;2619;47.868;11.892;2023-08-08T01:42:10;3.27;;;1.43;;
5199;SDS011;2619;47.868;11.892;2023-08-08T01:44:37;3.47;;;1.20;;
5199;SDS011;2619;47.868;11.892;2023-08-08T01:47:05;3.53;;;1.57;;
5199;SDS011;2619;47.868;11.892;2023-08-08T01:49:32;2.90;;;1.70;;
5199;SDS011;2619;47.868;11.892;2023-08-08T01:51:57;2.60;;;1.43;;
5199;SDS011;2619;47.868;11.892;2023-08-08T01:54:23;4.30;;;1.80;;
5199;SDS011;2619;47.868;11.892;2023-08-08T01:56:48;3.67;;;1.30;;
5199;SDS011;2619;47.868;11.892;2023-08-08T01:59:14;4.30;;;1.23;;
5199;SDS011;2619;47.868;11.892;2023-08-08T02:01:39;2.57;;;1.50;;
5199;SDS011;2619;47.868;11.892;2023-08-08T02:04:05;4.17;;;1.70;;
5199;SDS011;2619;47.868;11.892;2023-08-08T02:06:31;3.80;;;1.77;;
5199;SDS011;2619;47.868;11.892;2023-08-08T02:08:56;2.80;;;1.47;;
5199;SDS011;2619;47.868;11.892;2023-08-08T02:11:22;2.97;;;1.40;;
5199;SDS011;2619;47.868;11.892;2023-08-08T02:13:48;2.93;;;1.50;;
5199;SDS011;2619;47.868;11.892;2023-08-08T02:16:13;3.30;;;1.67;;
5199;SDS011;2619;47.868;11.892;2023-08-08T02:18:39;2.43;;;1.33;;
5199;SDS011;2619;47.868;11.892;2023-08-08T02:21:06;3.00;;;1.40;;
5199;SDS011;2619;47.868;11.892;2023-08-08T02:23:33;3.27;;;1.90;;
5199;SDS011;2619;47.868;11.892;2023-08-08T02:25:58;2.50;;;1.57;;
5199;SDS011;2619;47.868;11.892;2023-08-08T02:28:24;3.07;;;1.43;;
5199;SDS011;2619;47.868;11.892;2023-08-08T02:30:50;3.43;;;1.73;;
5199;SDS011;2619;47.868;11.892;2023-08-08T02:33:15;2.57;;;1.57;;
5199;SDS011;2619;47.868;11.892;2023-08-08T02:35:41;2.97;;;1.87;;
5199;SDS011;2619;47.868;11.892;2023-08-08T02:38:06;2.93;;;1.40;;
5199;SDS011;2619;47.868;11.892;2023-08-08T02:40:32;2.93;;;1.87;;
5199;SDS011;2619;47.868;11.892;2023-08-08T02:42:58;2.53;;;1.60;;
5199;SDS011;2619;47.868;11.892;2023-08-08T02:45:24;3.83;;;1.60;;
5199;SDS011;2619;47.868;11.892;2023-08-08T02:47:50;2.90;;;1.70;;
5199;SDS011;2619;47.868;11.892;2023-08-08T02:50:15;3.00;;;1.87;;
5199;SDS011;2619;47.868;11.892;2023-08-08T02:52:41;3.07;;;2.07;;
5199;SDS011;2619;47.868;11.892;2023-08-08T02:55:06;3.10;;;1.93;;
5199;SDS011;2619;47.868;11.892;2023-08-08T02:57:32;3.03;;;1.87;;
5199;SDS011;2619;47.868;11.892;2023-08-08T02:59:58;4.80;;;2.57;;
5199;SDS011;2619;47.868;11.892;2023-08-08T03:02:23;3.47;;;1.80;;
5199;SDS011;2619;47.868;11.892;2023-08-08T03:04:49;2.93;;;1.93;;
5199;SDS011;2619;47.868;11.892;2023-08-08T03:07:15;2.97;;;2.20;;
5199;SDS011;2619;47.868;11.892;2023-08-08T03:09:40;4.00;;;2.20;;
5199;SDS011;2619;47.868;11.892;2023-08-08T03:12:06;4.50;;;1.70;;
5199;SDS011;2619;47.868;11.892;2023-08-08T03:14:32;2.50;;;1.90;;
5199;SDS011;2619;47.868;11.892;2023-08-08T03:16:58;5.63;;;2.50;;
5199;SDS011;2619;47.868;11.892;2023-08-08T03:19:24;3.77;;;2.20;;
5199;SDS011;2619;47.868;11.892;2023-08-08T03:21:49;3.30;;;2.20;;
5199;SDS011;2619;47.868;11.892;2023-08-08T03:24:15;3.83;;;2.00;;
5199;SDS011;2619;47.868;11.892;2023-08-08T03:26:40;3.47;;;2.37;;
5199;SDS011;2619;47.868;11.892;2023-08-08T03:29:06;2.83;;;2.27;;
5199;SDS011;2619;47.868;11.892;2023-08-08T03:31:35;3.50;;;2.30;;
5199;SDS011;2619;47.868;11.892;2023-08-08T03:34:00;5.00;;;2.50;;
5199;SDS011;2619;47.868;11.892;2023-08-08T03:36:26;6.13;;;2.37;;
5199;SDS011;2619;47.868;11.892;2023-08-08T03:38:51;3.50;;;2.20;;
5199;SDS011;2619;47.868;11.892;2023-08-08T03:41:17;5.93;;;2.40;;
5199;SDS011;2619;47.868;11.892;2023-08-08T03:43:42;5.37;;;3.57;;
5199;SDS011;2619;47.868;11.892;2023-08-08T03:46:08;6.17;;;4.33;;
5199;SDS011;2619;47.868;11.892;2023-08-08T03:48:34;6.93;;;2.70;;
5199;SDS011;2619;47.868;11.892;2023-08-08T03:50:59;3.50;;;2.10;;
5199;SDS011;2619;47.868;11.892;2023-08-08T03:53:25;7.43;;;2.60;;
5199;SDS011;2619;47.868;11.892;2023-08-08T03:55:50;5.70;;;2.77;;
5199;SDS011;2619;47.868;11.892;2023-08-08T03:58:16;3.57;;;2.37;;
5199;SDS011;2619;47.868;11.892;2023-08-08T04:00:42;4.27;;;2.80;;
5199;SDS011;2619;47.868;11.892;2023-08-08T04:03:14;4.47;;;2.70;;
5199;SDS011;2619;47.868;11.892;2023-08-08T04:05:41;3.73;;;2.63;;
5199;SDS011;2619;47.868;11.892;2023-08-08T04:08:11;4.00;;;2.67;;
5199;SDS011;2619;47.868;11.892;2023-08-08T04:10:36;3.47;;;2.70;;
5199;SDS011;2619;47.868;11.892;2023-08-08T04:13:02;4.00;;;2.70;;
5199;SDS011;2619;47.868;11.892;2023-08-08T04:15:28;4.77;;;2.73;;
5199;SDS011;2619;47.868;11.892;2023-08-08T04:17:53;3.37;;;2.40;;
5199;SDS011;2619;47.868;11.892;2023-08-08T04:20:19;5.53;;;2.57;;
5199;SDS011;2619;47.868;11.892;2023-08-08T04:22:45;3.70;;;2.53;;
5199;SDS011;2619;47.868;11.892;2023-08-08T04:25:10;5.57;;;2.63;;
5199;SDS011;2619;47.868;11.892;2023-08-08T04:27:36;4.43;;;2.90;;
5199;SDS011;2619;47.868;11.892;2023-08-08T04:30:01;5.30;;;2.53;;
5199;SDS011;2619;47.868;11.892;2023-08-08T04:32:28;4.27;;;2.60;;
5199;SDS011;2619;47.868;11.892;2023-08-08T04:34:53;3.10;;;2.40;;
5199;SDS011;2619;47.868;11.892;2023-08-08T04:37:19;6.40;;;2.73;;
5199;SDS011;2619;47.868;11.892;2023-08-08T04:39:45;14.10;;;3.67;;
5199;SDS011;2619;47.868;11.892;2023-08-08T04:42:10;10.37;;;3.47;;
5199;SDS011;2619;47.868;11.892;2023-08-08T04:44:36;7.27;;;3.03;;
5199;SDS011;2619;47.868;11.892;2023-08-08T04:47:01;6.53;;;2.67;;
5199;SDS011;2619;47.868;11.892;2023-08-08T04:49:27;6.27;;;3.20;;
5199;SDS011;2619;47.868;11.892;2023-08-08T04:51:54;7.93;;;2.90;;
5199;SDS011;2619;47.868;11.892;2023-08-08T04:54:19;3.40;;;1.93;;
5199;SDS011;2619;47.868;11.892;2023-08-08T04:56:45;3.30;;;2.40;;
5199;SDS011;2619;47.868;11.892;2023-08-08T04:59:11;8.73;;;2.60;;
5199;SDS011;2619;47.868;11.892;2023-08-08T05:01:37;5.20;;;2.20;;
5199;SDS011;2619;47.868;11.892;2023-08-08T05:04:02;4.87;;;2.60;;
5199;SDS011;2619;47.868;11.892;2023-08-08T05:06:28;3.93;;;3.00;;
5199;SDS011;2619;47.868;11.892;2023-08-08T05:08:54;3.77;;;2.70;;
5199;SDS011;2619;47.868;11.892;2023-08-08T05:11:21;4.00;;;2.80;;
5199;SDS011;2619;47.868;11.892;2023-08-08T05:13:47;4.50;;;2.53;;
5199;SDS011;2619;47.868;11.892;2023-08-08T05:16:13;7.37;;;2.83;;
5199;SDS011;2619;47.868;11.892;2023-08-08T05:18:38;6.00;;;1.83;;
5199;SDS011;2619;47.868;11.892;2023-08-08T05:21:04;6.07;;;2.40;;
5199;SDS011;2619;47.868;11.892;2023-08-08T05:23:29;2.90;;;2.07;;
5199;SDS011;2619;47.868;11.892;2023-08-08T05:25:55;7.07;;;2.67;;
5199;SDS011;2619;47.868;11.892;2023-08-08T05:28:20;5.70;;;2.63;;
5199;SDS011;2619;47.868;11.892;2023-08-08T05:30:46;6.90;;;2.40;;
5199;SDS011;2619;47.868;11.892;2023-08-08T05:33:12;3.57;;;2.13;;
5199;SDS011;2619;47.868;11.892;2023-08-08T05:35:38;4.00;;;1.90;;
5199;SDS011;2619;47.868;11.892;2023-08-08T05:38:03;3.80;;;1.70;;
5199;SDS011;2619;47.868;11.892;2023-08-08T05:40:29;2.30;;;1.23;;
5199;SDS011;2619;47.868;11.892;2023-08-08T05:42:54;2.70;;;1.60;;
5199;SDS011;2619;47.868;11.892;2023-08-08T05:45:20;2.33;;;1.40;;
5199;SDS011;2619;47.868;11.892;2023-08-08T05:47:46;3.20;;;1.57;;
5199;SDS011;2619;47.868;11.892;2023-08-08T05:50:11;5.13;;;1.53;;
5199;SDS011;2619;47.868;11.892;2023-08-08T05:52:37;2.33;;;1.53;;
5199;SDS011;2619;47.868;11.892;2023-08-08T05:55:02;3.53;;;1.50;;
5199;SDS011;2619;47.868;11.892;2023-08-08T05:57:28;3.30;;;1.13;;
5199;SDS011;2619;47.868;11.892;2023-08-08T05:59:54;3.80;;;1.40;;
5199;SDS011;2619;47.868;11.892;2023-08-08T06:02:19;2.47;;;1.30;;
5199;SDS011;2619;47.868;11.892;2023-08-08T06:04:45;2.90;;;1.27;;
5199;SDS011;2619;47.868;11.892;2023-08-08T06:07:10;8.33;;;1.33;;
5199;SDS011;2619;47.868;11.892;2023-08-08T06:09:36;4.10;;;1.20;;
5199;SDS011;2619;47.868;11.892;2023-08-08T06:12:05;4.40;;;1.37;;
5199;SDS011;2619;47.868;11.892;2023-08-08T06:14:31;2.60;;;1.33;;
5199;SDS011;2619;47.868;11.892;2023-08-08T06:16:56;5.63;;;1.63;;
5199;SDS011;2619;47.868;11.892;2023-08-08T06:19:22;2.63;;;1.53;;
5199;SDS011;2619;47.868;11.892;2023-08-08T06:21:47;2.90;;;1.27;;
5199;SDS011;2619;47.868;11.892;2023-08-08T06:24:14;2.40;;;1.37;;
5199;SDS011;2619;47.868;11.892;2023-08-08T06:26:39;4.97;;;1.60;;
5199;SDS011;2619;47.868;11.892;2023-08-08T06:29:05;2.13;;;1.43;;
5199;SDS011;2619;47.868;11.892;2023-08-08T06:31:30;2.50;;;0.93;;
5199;SDS011;2619;47.868;11.892;2023-08-08T06:33:56;3.27;;;1.47;;
5199;SDS011;2619;47.868;11.892;2023-08-08T06:36:22;2.50;;;1.00;;
5199;SDS011;2619;47.868;11.892;2023-08-08T06:38:47;2.53;;;0.90;;
5199;SDS011;2619;47.868;11.892;2023-08-08T06:41:13;2.83;;;1.30;;
5199;SDS011;2619;47.868;11.892;2023-08-08T06:43:39;2.47;;;1.20;;
5199;SDS011;2619;47.868;11.892;2023-08-08T06:46:04;2.70;;;1.10;;
5199;SDS011;2619;47.868;11.892;2023-08-08T06:48:30;2.67;;;1.00;;
5199;SDS011;2619;47.868;11.892;2023-08-08T06:50:56;5.50;;;1.20;;
5199;SDS011;2619;47.868;11.892;2023-08-08T06:53:22;2.47;;;1.47;;
5199;SDS011;2619;47.868;11.892;2023-08-08T06:55:48;2.87;;;1.60;;
5199;SDS011;2619;47.868;11.892;2023-08-08T06:58:13;3.20;;;1.20;;
5199;SDS011;2619;47.868;11.892;2023-08-08T07:00:39;3.70;;;1.17;;
5199;SDS011;2619;47.868;11.892;2023-08-08T07:03:05;2.47;;;1.00;;
5199;SDS011;2619;47.868;11.892;2023-08-08T07:05:31;2.33;;;1.40;;
5199;SDS011;2619;47.868;11.892;2023-08-08T07:07:56;3.97;;;1.50;;
5199;SDS011;2619;47.868;11.892;2023-08-08T07:10:22;5.10;;;1.20;;
5199;SDS011;2619;47.868;11.892;2023-08-08T07:12:48;3.13;;;1.20;;
5199;SDS011;2619;47.868;11.892;2023-08-08T07:15:13;7.33;;;1.73;;
5199;SDS011;2619;47.868;11.892;2023-08-08T07:17:39;2.53;;;1.27;;
5199;SDS011;2619;47.868;11.892;2023-08-08T07:20:05;3.13;;;1.47;;
5199;SDS011;2619;47.868;11.892;2023-08-08T07:22:31;2.80;;;1.30;;
5199;SDS011;2619;47.868;11.892;2023-08-08T07:24:58;1.90;;;1.00;;
5199;SDS011;2619;47.868;11.892;2023-08-08T07:27:26;3.90;;;1.17;;
5199;SDS011;2619;47.868;11.892;2023-08-08T07:29:52;3.37;;;1.70;;
5199;SDS011;2619;47.868;11.892;2023-08-08T07:32:18;4.87;;;1.60;;
5199;SDS011;2619;47.868;11.892;2023-08-08T07:34:43;3.80;;;1.40;;
5199;SDS011;2619;47.868;11.892;2023-08-08T07:37:09;2.37;;;0.90;;
5199;SDS011;2619;47.868;11.892;2023-08-08T07:39:35;3.17;;;1.20;;
5199;SDS011;2619;47.868;11.892;2023-08-08T07:42:00;6.00;;;1.40;;
5199;SDS011;2619;47.868;11.892;2023-08-08T07:44:26;2.63;;;1.03;;
5199;SDS011;2619;47.868;11.892;2023-08-08T07:46:51;2.90;;;1.10;;
5199;SDS011;2619;47.868;11.892;2023-08-08T07:49:17;5.63;;;1.33;;
5199;SDS011;2619;47.868;11.892;2023-08-08T07:51:43;4.30;;;1.17;;
5199;SDS011;2619;47.868;11.892;2023-08-08T07:54:08;4.30;;;1.27;;
5199;SDS011;2619;47.868;11.892;2023-08-08T07:56:35;2.30;;;1.00;;
5199;SDS011;2619;47.868;11.892;2023-08-08T07:59:01;3.03;;;1.00;;
5199;SDS011;2619;47.868;11.892;2023-08-08T08:01:28;2.90;;;1.47;;
5199;SDS011;2619;47.868;11.892;2023-08-08T08:03:53;2.07;;;1.10;;
5199;SDS011;2619;47.868;11.892;2023-08-08T08:06:19;3.40;;;1.20;;
5199;SDS011;2619;47.868;11.892;2023-08-08T08:08:45;2.17;;;1.30;;
5199;SDS011;2619;47.868;11.892;2023-08-08T08:11:11;2.10;;;1.10;;
5199;SDS011;2619;47.868;11.892;2023-08-08T08:13:38;2.10;;;1.00;;
5199;SDS011;2619;47.868;11.892;2023-08-08T08:16:04;2.73;;;1.00;;
5199;SDS011;2619;47.868;11.892;2023-08-08T08:18:30;2.33;;;1.00;;
5199;SDS011;2619;47.868;11.892;2023-08-08T08:20:55;3.27;;;1.47;;
5199;SDS011;2619;47.868;11.892;2023-08-08T08:23:21;3.20;;;1.20;;
5199;SDS011;2619;47.868;11.892;2023-08-08T08:25:47;2.90;;;1.23;;
5199;SDS011;2619;47.868;11.892;2023-08-08T08:28:13;3.50;;;1.20;;
5199;SDS011;2619;47.868;11.892;2023-08-08T08:30:39;4.57;;;1.30;;
5199;SDS011;2619;47.868;11.892;2023-08-08T08:33:05;4.17;;;1.13;;
5199;SDS011;2619;47.868;11.892;2023-08-08T08:35:32;2.30;;;1.10;;
5199;SDS011;2619;47.868;11.892;2023-08-08T08:37:59;2.37;;;0.90;;
5199;SDS011;2619;47.868;11.892;2023-08-08T08:40:24;4.73;;;1.30;;
5199;SDS011;2619;47.868;11.892;2023-08-08T08:42:51;5.53;;;1.87;;
5199;SDS011;2619;47.868;11.892;2023-08-08T08:45:17;1.80;;;0.80;;
5199;SDS011;2619;47.868;11.892;2023-08-08T08:47:46;2.33;;;1.33;;
5199;SDS011;2619;47.868;11.892;2023-08-08T08:50:13;2.30;;;1.20;;
5199;SDS011;2619;47.868;11.892;2023-08-08T08:52:40;3.60;;;1.50;;
5199;SDS011;2619;47.868;11.892;2023-08-08T08:55:07;2.53;;;1.17;;
5199;SDS011;2619;47.868;11.892;2023-08-08T08:57:33;2.00;;;1.10;;
5199;SDS011;2619;47.868;11.892;2023-08-08T09:00:00;2.23;;;1.03;;
5199;SDS011;2619;47.868;11.892;2023-08-08T09:02:25;1.90;;;1.10;;
5199;SDS011;2619;47.868;11.892;2023-08-08T09:04:51;2.73;;;1.23;;
5199;SDS011;2619;47.868;11.892;2023-08-08T09:07:17;3.50;;;1.10;;
5199;SDS011;2619;47.868;11.892;2023-08-08T09:09:45;2.40;;;1.30;;
5199;SDS011;2619;47.868;11.892;2023-08-08T09:12:11;4.57;;;1.40;;
5199;SDS011;2619;47.868;11.892;2023-08-08T09:14:40;3.80;;;1.07;;
5199;SDS011;2619;47.868;11.892;2023-08-08T09:17:13;2.20;;;1.30;;
5199;SDS011;2619;47.868;11.892;2023-08-08T09:19:45;2.37;;;1.00;;
5199;SDS011;2619;47.868;11.892;2023-08-08T09:22:12;2.10;;;0.97;;
5199;SDS011;2619;47.868;11.892;2023-08-08T09:24:39;2.63;;;1.20;;
5199;SDS011;2619;47.868;11.892;2023-08-08T09:27:06;2.60;;;0.90;;
5199;SDS011;2619;47.868;11.892;2023-08-08T09:29:32;2.37;;;0.90;;
5199;SDS011;2619;47.868;11.892;2023-08-08T09:31:58;3.10;;;1.10;;
5199;SDS011;2619;47.868;11.892;2023-08-08T09:34:24;2.80;;;1.07;;
5199;SDS011;2619;47.868;11.892;2023-08-08T09:36:51;2.20;;;1.20;;
5199;SDS011;2619;47.868;11.892;2023-08-08T09:39:18;6.50;;;1.37;;
5199;SDS011;2619;47.868;11.892;2023-08-08T09:41:45;5.33;;;1.27;;
5199;SDS011;2619;47.868;11.892;2023-08-08T09:44:11;3.13;;;1.30;;
5199;SDS011;2619;47.868;11.892;2023-08-08T09:46:37;2.23;;;1.20;;
5199;SDS011;2619;47.868;11.892;2023-08-08T09:49:05;3.10;;;1.10;;
5199;SDS011;2619;47.868;11.892;2023-08-08T09:51:31;1.93;;;1.00;;
5199;SDS011;2619;47.868;11.892;2023-08-08T09:53:58;4.03;;;1.93;;
5199;SDS011;2619;47.868;11.892;2023-08-08T09:56:24;2.87;;;1.20;;
5199;SDS011;2619;47.868;11.892;2023-08-08T09:58:51;2.20;;;1.20;;
5199;SDS011;2619;47.868;11.892;2023-08-08T10:01:17;2.17;;;1.10;;
5199;SDS011;2619;47.868;11.892;2023-08-08T10:03:45;2.17;;;1.40;;
5199;SDS011;2619;47.868;11.892;2023-08-08T10:06:10;4.97;;;1.30;;
5199;SDS011;2619;47.868;11.892;2023-08-08T10:08:36;2.50;;;1.53;;
5199;SDS011;2619;47.868;11.892;2023-08-08T10:11:02;2.57;;;1.30;;
5199;SDS011;2619;47.868;11.892;2023-08-08T10:13:30;4.47;;;1.47;;
5199;SDS011;2619;47.868;11.892;2023-08-08T10:15:55;1.87;;;1.10;;
5199;SDS011;2619;47.868;11.892;2023-08-08T10:18:21;5.30;;;1.10;;
5199;SDS011;2619;47.868;11.892;2023-08-08T10:20:48;2.27;;;0.90;;
5199;SDS011;2619;47.868;11.892;2023-08-08T10:23:15;2.93;;;1.30;;
5199;SDS011;2619;47.868;11.892;2023-08-08T10:25:45;2.77;;;1.07;;
5199;SDS011;2619;47.868;11.892;2023-08-08T10:28:12;4.17;;;1.20;;
5199;SDS011;2619;47.868;11.892;2023-08-08T10:33:21;2.43;;;1.17;;
5199;SDS011;2619;47.868;11.892;2023-08-08T10:35:56;3.20;;;1.33;;
5199;SDS011;2619;47.868;11.892;2023-08-08T10:38:23;7.63;;;1.50;;
5199;SDS011;2619;47.868;11.892;2023-08-08T10:40:56;2.30;;;1.13;;
5199;SDS011;2619;47.868;11.892;2023-08-08T10:43:25;2.70;;;1.17;;
5199;SDS011;2619;47.868;11.892;2023-08-08T10:45:56;1.90;;;1.03;;
5199;SDS011;2619;47.868;11.892;2023-08-08T10:48:23;3.30;;;1.10;;
5199;SDS011;2619;47.868;11.892;2023-08-08T10:50:49;2.07;;;1.03;;
5199;SDS011;2619;47.868;11.892;2023-08-08T10:53:15;2.90;;;1.07;;
5199;SDS011;2619;47.868;11.892;2023-08-08T10:55:41;3.10;;;1.07;;
5199;SDS011;2619;47.868;11.892;2023-08-08T10:58:10;3.53;;;1.00;;
5199;SDS011;2619;47.868;11.892;2023-08-08T11:00:40;3.80;;;1.10;;
5199;SDS011;2619;47.868;11.892;2023-08-08T11:03:06;3.00;;;1.33;;
5199;SDS011;2619;47.868;11.892;2023-08-08T11:05:34;4.13;;;1.20;;
5199;SDS011;2619;47.868;11.892;2023-08-08T11:08:01;2.30;;;1.00;;
5199;SDS011;2619;47.868;11.892;2023-08-08T11:10:28;2.10;;;1.10;;
5199;SDS011;2619;47.868;11.892;2023-08-08T11:13:04;2.97;;;1.20;;
5199;SDS011;2619;47.868;11.892;2023-08-08T11:15:32;4.00;;;1.30;;
5199;SDS011;2619;47.868;11.892;2023-08-08T11:17:59;3.40;;;1.30;;
5199;SDS011;2619;47.868;11.892;2023-08-08T11:20:28;3.40;;;1.20;;
5199;SDS011;2619;47.868;11.892;2023-08-08T11:22:55;3.20;;;1.17;;
5199;SDS011;2619;47.868;11.892;2023-08-08T11:25:21;2.10;;;1.00;;
5199;SDS011;2619;47.868;11.892;2023-08-08T11:27:48;4.33;;;1.53;;
5199;SDS011;2619;47.868;11.892;2023-08-08T11:30:17;2.07;;;1.00;;
5199;SDS011;2619;47.868;11.892;2023-08-08T11:32:43;2.57;;;1.03;;
5199;SDS011;2619;47.868;11.892;2023-08-08T11:35:11;3.60;;;0.97;;
5199;SDS011;2619;47.868;11.892;2023-08-08T11:37:37;4.07;;;1.47;;
5199;SDS011;2619;47.868;11.892;2023-08-08T11:40:03;2.00;;;1.10;;
5199;SDS011;2619;47.868;11.892;2023-08-08T11:42:30;2.13;;;1.07;;
5199;SDS011;2619;47.868;11.892;2023-08-08T11:44:56;2.60;;;1.20;;
5199;SDS011;2619;47.868;11.892;2023-08-08T11:47:26;2.40;;;1.30;;
5199;SDS011;2619;47.868;11.892;2023-08-08T11:49:53;2.30;;;1.20;;
5199;SDS011;2619;47.868;11.892;2023-08-08T11:52:19;3.03;;;1.10;;
5199;SDS011;2619;47.868;11.892;2023-08-08T11:54:49;2.33;;;1.17;;
5199;SDS011;2619;47.868;11.892;2023-08-08T11:57:17;2.20;;;1.10;;
5199;SDS011;2619;47.868;11.892;2023-08-08T11:59:42;2.47;;;1.50;;
5199;SDS011;2619;47.868;11.892;2023-08-08T12:02:09;4.03;;;1.00;;
5199;SDS011;2619;47.868;11.892;2023-08-08T12:04:34;5.17;;;1.40;;
5199;SDS011;2619;47.868;11.892;2023-08-08T12:07:01;2.07;;;1.13;;
5199;SDS011;2619;47.868;11.892;2023-08-08T12:09:29;2.20;;;1.10;;
5199;SDS011;2619;47.868;11.892;2023-08-08T12:11:58;2.90;;;1.30;;
5199;SDS011;2619;47.868;11.892;2023-08-08T12:14:25;2.60;;;1.20;;
5199;SDS011;2619;47.868;11.892;2023-08-08T12:16:51;2.90;;;1.07;;
5199;SDS011;2619;47.868;11.892;2023-08-08T12:19:21;2.60;;;1.20;;
5199;SDS011;2619;47.868;11.892;2023-08-08T12:21:48;2.57;;;1.23;;
5199;SDS011;2619;47.868;11.892;2023-08-08T12:24:14;2.23;;;1.20;;
5199;SDS011;2619;47.868;11.892;2023-08-08T12:26:39;4.43;;;1.00;;
5199;SDS011;2619;47.868;11.892;2023-08-08T12:29:05;2.00;;;1.10;;
5199;SDS011;2619;47.868;11.892;2023-08-08T12:31:30;2.10;;;1.07;;
5199;SDS011;2619;47.868;11.892;2023-08-08T12:33:56;3.20;;;1.07;;
5199;SDS011;2619;47.868;11.892;2023-08-08T12:36:22;2.80;;;1.30;;
5199;SDS011;2619;47.868;11.892;2023-08-08T12:38:47;2.80;;;1.40;;
5199;SDS011;2619;47.868;11.892;2023-08-08T12:41:13;2.70;;;0.97;;
5199;SDS011;2619;47.868;11.892;2023-08-08T12:43:38;4.80;;;1.40;;
5199;SDS011;2619;47.868;11.892;2023-08-08T12:46:05;3.50;;;1.20;;
5199;SDS011;2619;47.868;11.892;2023-08-08T12:48:30;2.53;;;1.30;;
5199;SDS011;2619;47.868;11.892;2023-08-08T12:50:56;2.50;;;1.10;;
5199;SDS011;2619;47.868;11.892;2023-08-08T12:53:21;2.93;;;1.23;;
5199;SDS011;2619;47.868;11.892;2023-08-08T12:55:47;1.83;;;0.90;;
5199;SDS011;2619;47.868;11.892;2023-08-08T12:58:12;2.30;;;1.20;;
5199;SDS011;2619;47.868;11.892;2023-08-08T13:00:38;3.40;;;1.40;;
5199;SDS011;2619;47.868;11.892;2023-08-08T13:03:04;2.37;;;1.33;;
5199;SDS011;2619;47.868;11.892;2023-08-08T13:05:30;2.30;;;1.20;;
5199;SDS011;2619;47.868;11.892;2023-08-08T13:07:55;2.83;;;1.20;;
5199;SDS011;2619;47.868;11.892;2023-08-08T13:10:21;3.20;;;1.03;;
5199;SDS011;2619;47.868;11.892;2023-08-08T13:12:47;2.10;;;1.00;;
5199;SDS011;2619;47.868;11.892;2023-08-08T13:15:13;3.67;;;1.30;;
5199;SDS011;2619;47.868;11.892;2023-08-08T13:17:38;4.13;;;1.20;;
5199;SDS011;2619;47.868;11.892;2023-08-08T13:20:04;3.07;;;1.00;;
5199;SDS011;2619;47.868;11.892;2023-08-08T13:22:31;1.73;;;0.90;;
5199;SDS011;2619;47.868;11.892;2023-08-08T13:24:56;7.60;;;1.73;;
5199;SDS011;2619;47.868;11.892;2023-08-08T13:27:22;1.90;;;1.00;;
5199;SDS011;2619;47.868;11.892;2023-08-08T13:29:47;2.40;;;1.07;;
5199;SDS011;2619;47.868;11.892;2023-08-08T13:32:13;3.40;;;1.00;;
5199;SDS011;2619;47.868;11.892;2023-08-08T13:34:39;3.20;;;1.40;;
5199;SDS011;2619;47.868;11.892;2023-08-08T13:37:04;4.53;;;1.30;;
5199;SDS011;2619;47.868;11.892;2023-08-08T13:39:30;5.10;;;1.20;;
5199;SDS011;2619;47.868;11.892;2023-08-08T13:41:56;4.53;;;1.23;;
5199;SDS011;2619;47.868;11.892;2023-08-08T13:44:22;3.83;;;1.40;;
5199;SDS011;2619;47.868;11.892;2023-08-08T13:46:47;3.00;;;1.03;;
5199;SDS011;2619;47.868;11.892;2023-08-08T13:49:13;4.50;;;1.17;;
5199;SDS011;2619;47.868;11.892;2023-08-08T13:51:38;3.83;;;1.20;;
5199;SDS011;2619;47.868;11.892;2023-08-08T13:54:04;7.33;;;1.43;;
5199;SDS011;2619;47.868;11.892;2023-08-08T13:56:29;2.20;;;1.10;;
5199;SDS011;2619;47.868;11.892;2023-08-08T13:58:55;2.10;;;1.20;;
5199;SDS011;2619;47.868;11.892;2023-08-08T14:01:20;2.93;;;1.07;;
5199;SDS011;2619;47.868;11.892;2023-08-08T14:03:46;5.90;;;1.70;;
5199;SDS011;2619;47.868;11.892;2023-08-08T14:06:12;3.23;;;1.30;;
5199;SDS011;2619;47.868;11.892;2023-08-08T14:08:37;2.90;;;1.00;;
5199;SDS011;2619;47.868;11.892;2023-08-08T14:11:03;1.87;;;0.93;;
5199;SDS011;2619;47.868;11.892;2023-08-08T14:13:28;2.20;;;0.90;;
5199;SDS011;2619;47.868;11.892;2023-08-08T14:15:54;2.67;;;1.27;;
5199;SDS011;2619;47.868;11.892;2023-08-08T14:18:19;2.50;;;1.10;;
5199;SDS011;2619;47.868;11.892;2023-08-08T14:20:45;6.43;;;1.73;;
5199;SDS011;2619;47.868;11.892;2023-08-08T14:23:11;2.47;;;1.40;;
5199;SDS011;2619;47.868;11.892;2023-08-08T14:25:36;2.93;;;1.50;;
5199;SDS011;2619;47.868;11.892;2023-08-08T14:28:02;2.67;;;0.97;;
5199;SDS011;2619;47.868;11.892;2023-08-08T14:30:29;2.40;;;1.00;;
5199;SDS011;2619;47.868;11.892;2023-08-08T14:32:55;3.00;;;0.90;;
5199;SDS011;2619;47.868;11.892;2023-08-08T14:35:21;2.37;;;1.20;;
5199;SDS011;2619;47.868;11.892;2023-08-08T14:37:46;4.83;;;1.20;;
5199;SDS011;2619;47.868;11.892;2023-08-08T14:40:12;4.30;;;1.40;;
5199;SDS011;2619;47.868;11.892;2023-08-08T14:42:38;2.73;;;1.43;;
5199;SDS011;2619;47.868;11.892;2023-08-08T14:45:03;4.43;;;1.40;;
5199;SDS011;2619;47.868;11.892;2023-08-08T14:47:30;3.37;;;1.13;;
5199;SDS011;2619;47.868;11.892;2023-08-08T14:49:56;3.53;;;0.93;;
5199;SDS011;2619;47.868;11.892;2023-08-08T14:52:22;2.93;;;1.30;;
5199;SDS011;2619;47.868;11.892;2023-08-08T14:54:48;3.80;;;1.37;;
5199;SDS011;2619;47.868;11.892;2023-08-08T14:57:14;2.33;;;1.27;;
5199;SDS011;2619;47.868;11.892;2023-08-08T14:59:40;7.43;;;1.67;;